4WI4 weather

Turner Airport
Tomahawk, Wisconsin, United States

Public forecast

Using degrees Fahrenheit for public forecast. Weather courtesy of forecast.io.

METAR (pilot weather report)

Closest report is Tomahawk Regional Airport, 6.8 nm (12.5 km) SSW. Retrieved 2019/08/17 16:35 UTC (0 seconds ago):

KTKV 171635Z AUTO 00000KT 10SM SCT034 23/16 A2992 RMK AO2 T02300159

TAF (pilot weather forecast)

Closest forecast is Rhinelander Oneida County Airport, 12.3 nm (22.7 km) ENE. Retrieved 2019/08/17 12:30 UTC (4 hours ago):

TAF KRHI 171129Z 1712/1812 VRB03KT P6SM SKC TEMPO 1712/1713 3SM BR FM171300 23003KT P6SM SKC FM171500 22004KT P6SM SCT035 FM180100 16004KT P6SM SCT250 FM180600 16004KT P6SM SCT080 FM181100 15005KT P6SM -SHRA SCT025 BKN060